Time;durP1;ratioP1;P1;durP2;ratioP2;P2;SDS_P1;SDS_P2;PMS_P1;PMS_P2;Temp;Humidity;BMP_temperature;BMP_pressure;BME280_temperature;BME280_humidity;BME280_pressure;Samples;Min_cycle;Max_cycle;Signal;HPM_P1;HPM_P2
2022/06/29 00:01:07;;;;;;;1.30;1.30;;;;;;;;;;1856982;76;26765;-51
2022/06/29 00:03:34;;;;;;;1.20;1.10;;;;;;;;;;1853414;76;26314;-50
2022/06/29 00:06:02;;;;;;;1.20;1.20;;;;;;;;;;1855787;76;26376;-53
2022/06/29 00:08:29;;;;;;;1.20;1.10;;;;;;;;;;1838809;76;26306;-50
2022/06/29 00:10:57;;;;;;;1.10;1.10;;;;;;;;;;1829962;76;26271;-52
2022/06/29 00:13:24;;;;;;;1.30;1.30;;;;;;;;;;1849920;76;26350;-51
2022/06/29 00:15:51;;;;;;;1.20;1.20;;;;;;;;;;1855390;76;26248;-52
2022/06/29 00:18:19;;;;;;;1.40;1.30;;;;;;;;;;1857402;76;26263;-52
2022/06/29 00:20:46;;;;;;;1.27;1.27;;;;;;;;;;1866218;76;26217;-47
2022/06/29 00:23:13;;;;;;;1.25;1.25;;;;;;;;;;1854850;76;26358;-49
2022/06/29 00:25:40;;;;;;;1.10;1.10;;;;;;;;;;1851708;76;26341;-47
2022/06/29 00:28:08;;;;;;;2.10;1.32;;;;;;;;;;1849057;76;26373;-48
2022/06/29 00:30:36;;;;;;;1.20;1.20;;;;;;;;;;1843484;76;26357;-47
2022/06/29 00:33:03;;;;;;;1.20;1.20;;;;;;;;;;1853292;76;26303;-47
2022/06/29 00:35:30;;;;;;;1.47;1.37;;;;;;;;;;1857085;76;26318;-48
2022/06/29 00:37:58;;;;;;;1.22;1.22;;;;;;;;;;1866326;76;26736;-48
2022/06/29 00:40:25;;;;;;;1.32;1.20;;;;;;;;;;1856084;76;26349;-48
2022/06/29 00:42:52;;;;;;;1.45;1.37;;;;;;;;;;1850800;76;26306;-47
2022/06/29 00:45:20;;;;;;;1.40;1.32;;;;;;;;;;1844470;76;26815;-47
2022/06/29 00:47:47;;;;;;;1.30;1.20;;;;;;;;;;1833816;76;26302;-48
2022/06/29 00:50:14;;;;;;;1.40;1.30;;;;;;;;;;1844917;76;26773;-47
2022/06/29 00:52:42;;;;;;;1.22;1.22;;;;;;;;;;1852297;76;26617;-47
2022/06/29 00:55:11;;;;;;;1.35;1.25;;;;;;;;;;1846754;76;26396;-52
2022/06/29 00:57:40;;;;;;;1.55;1.30;;;;;;;;;;1843175;76;27151;-48
2022/06/29 01:00:08;;;;;;;1.30;1.30;;;;;;;;;;1849374;76;26279;-48
2022/06/29 01:02:35;;;;;;;1.20;1.20;;;;;;;;;;1852446;77;26272;-47
2022/06/29 01:05:04;;;;;;;1.35;1.32;;;;;;;;;;1834595;77;26377;-48
2022/06/29 01:07:32;;;;;;;1.30;1.30;;;;;;;;;;1842658;76;26267;-48
2022/06/29 01:10:00;;;;;;;1.30;1.30;;;;;;;;;;1853634;76;26277;-46
2022/06/29 01:12:27;;;;;;;1.95;1.15;;;;;;;;;;1845829;76;26372;-49
2022/06/29 01:14:55;;;;;;;2.30;1.20;;;;;;;;;;1842217;76;26396;-51
2022/06/29 01:17:22;;;;;;;1.20;1.20;;;;;;;;;;1842923;76;26349;-47
2022/06/29 01:19:50;;;;;;;1.10;1.10;;;;;;;;;;1868394;76;26334;-48
2022/06/29 01:22:19;;;;;;;1.45;1.30;;;;;;;;;;1856174;76;26365;-48
2022/06/29 01:24:47;;;;;;;1.42;1.37;;;;;;;;;;1847249;76;27352;-47
2022/06/29 01:27:15;;;;;;;1.20;1.20;;;;;;;;;;1854668;76;26322;-47
2022/06/29 01:29:43;;;;;;;1.15;1.15;;;;;;;;;;1847735;77;26213;-48
2022/06/29 01:32:10;;;;;;;1.07;1.07;;;;;;;;;;1852883;77;26277;-48
2022/06/29 01:34:38;;;;;;;1.10;1.10;;;;;;;;;;1844764;76;26629;-49
2022/06/29 01:37:06;;;;;;;1.52;1.40;;;;;;;;;;1854597;76;26270;-49
2022/06/29 01:39:33;;;;;;;1.35;1.25;;;;;;;;;;1830053;76;26258;-48
2022/06/29 01:42:00;;;;;;;2.15;1.30;;;;;;;;;;1841595;76;26274;-49
2022/06/29 01:44:29;;;;;;;1.40;1.35;;;;;;;;;;1828398;77;26293;-49
2022/06/29 01:46:56;;;;;;;1.27;1.27;;;;;;;;;;1859345;76;26320;-50
2022/06/29 01:49:25;;;;;;;1.30;1.30;;;;;;;;;;1843107;76;26558;-47
2022/06/29 01:51:52;;;;;;;2.22;1.40;;;;;;;;;;1846713;77;26334;-53
2022/06/29 01:54:19;;;;;;;1.30;1.30;;;;;;;;;;1851188;76;26287;-49
2022/06/29 01:56:46;;;;;;;3.35;1.32;;;;;;;;;;1840208;76;26917;-48
2022/06/29 01:59:14;;;;;;;1.22;1.22;;;;;;;;;;1850722;76;26688;-48
2022/06/29 02:01:41;;;;;;;1.27;1.17;;;;;;;;;;1861176;76;26310;-50
2022/06/29 02:04:09;;;;;;;1.30;1.20;;;;;;;;;;1854527;77;26252;-51
2022/06/29 02:06:36;;;;;;;1.20;1.20;;;;;;;;;;1831137;76;26255;-48
2022/06/29 02:09:03;;;;;;;1.42;1.32;;;;;;;;;;1861082;76;26293;-49
2022/06/29 02:11:30;;;;;;;1.42;1.37;;;;;;;;;;1856067;76;26782;-48
2022/06/29 02:13:58;;;;;;;1.50;1.40;;;;;;;;;;1834921;77;26721;-49
2022/06/29 02:16:26;;;;;;;1.42;1.40;;;;;;;;;;1844185;77;26527;-48
2022/06/29 02:18:53;;;;;;;1.50;1.42;;;;;;;;;;1856873;76;26275;-48
2022/06/29 02:21:20;;;;;;;1.45;1.40;;;;;;;;;;1869690;76;26350;-48
2022/06/29 02:23:48;;;;;;;1.40;1.40;;;;;;;;;;1855488;76;26752;-48
2022/06/29 02:26:16;;;;;;;1.30;1.30;;;;;;;;;;1855795;76;26287;-49
2022/06/29 02:28:43;;;;;;;1.75;1.65;;;;;;;;;;1853896;76;26260;-49
2022/06/29 02:36:42;;;;;;;1.70;1.62;;;;;;;;;;1822412;77;26817;-47
2022/06/29 02:39:09;;;;;;;2.08;1.50;;;;;;;;;;1813106;76;26815;-47
2022/06/29 02:41:36;;;;;;;1.98;1.42;;;;;;;;;;1816976;76;26723;-48
2022/06/29 02:44:04;;;;;;;1.75;1.62;;;;;;;;;;1822294;77;26658;-49
2022/06/29 02:46:31;;;;;;;2.72;1.50;;;;;;;;;;1830401;76;26331;-48
2022/06/29 02:48:58;;;;;;;1.50;1.50;;;;;;;;;;1820836;76;26316;-47
2022/06/29 02:51:25;;;;;;;1.50;1.50;;;;;;;;;;1825205;77;26756;-47
2022/06/29 02:53:53;;;;;;;1.60;1.60;;;;;;;;;;1815225;78;26256;-47
2022/06/29 02:56:20;;;;;;;1.80;1.70;;;;;;;;;;1812453;76;26268;-47
2022/06/29 02:58:47;;;;;;;1.60;1.60;;;;;;;;;;1823853;78;26256;-49
2022/06/29 03:01:14;;;;;;;2.95;1.70;;;;;;;;;;1825083;76;26323;-47
2022/06/29 03:03:42;;;;;;;1.85;1.80;;;;;;;;;;1843107;77;26268;-47
2022/06/29 03:06:09;;;;;;;5.55;1.87;;;;;;;;;;1814339;76;26241;-48
2022/06/29 03:08:36;;;;;;;2.37;1.60;;;;;;;;;;1817293;76;26392;-48
2022/06/29 03:11:04;;;;;;;1.50;1.50;;;;;;;;;;1820486;78;25624;-47
2022/06/29 03:13:31;;;;;;;1.65;1.65;;;;;;;;;;1827276;76;26257;-47
2022/06/29 03:15:58;;;;;;;1.75;1.65;;;;;;;;;;1807889;78;26283;-47
2022/06/29 03:18:26;;;;;;;1.90;1.80;;;;;;;;;;1829578;76;26809;-47
2022/06/29 03:20:54;;;;;;;2.15;2.05;;;;;;;;;;1834305;76;26750;-48
2022/06/29 03:23:21;;;;;;;2.62;2.00;;;;;;;;;;1824049;76;26261;-50
2022/06/29 03:25:48;;;;;;;1.77;1.77;;;;;;;;;;1830551;77;26321;-48
2022/06/29 03:28:15;;;;;;;2.10;2.00;;;;;;;;;;1820176;76;26238;-47
2022/06/29 03:30:43;;;;;;;2.08;1.98;;;;;;;;;;1829598;76;26704;-48
2022/06/29 03:33:10;;;;;;;2.22;2.00;;;;;;;;;;1835844;77;27308;-49
2022/06/29 03:35:38;;;;;;;3.62;2.00;;;;;;;;;;1846089;76;26264;-48
2022/06/29 03:38:05;;;;;;;1.98;1.87;;;;;;;;;;1853299;76;26848;-47
2022/06/29 03:40:32;;;;;;;2.00;1.90;;;;;;;;;;1856583;76;26264;-47
2022/06/29 03:42:59;;;;;;;1.82;1.82;;;;;;;;;;1854079;77;26228;-49
2022/06/29 03:45:27;;;;;;;1.80;1.80;;;;;;;;;;1855384;76;26260;-48
2022/06/29 03:47:54;;;;;;;1.72;1.72;;;;;;;;;;1843589;76;26337;-48
2022/06/29 03:50:21;;;;;;;2.00;1.80;;;;;;;;;;1853345;76;26597;-50
2022/06/29 03:52:52;;;;;;;1.98;1.95;;;;;;;;;;1838279;76;26322;-49
2022/06/29 03:55:19;;;;;;;2.02;1.92;;;;;;;;;;1845507;76;25721;-47
2022/06/29 03:57:46;;;;;;;2.02;1.92;;;;;;;;;;1856314;76;26556;-49
2022/06/29 04:00:14;;;;;;;2.25;1.92;;;;;;;;;;1856470;77;26243;-48
2022/06/29 04:02:41;;;;;;;3.20;1.90;;;;;;;;;;1829850;77;26286;-47
2022/06/29 04:05:09;;;;;;;1.92;1.90;;;;;;;;;;1834654;77;26336;-48
2022/06/29 04:07:37;;;;;;;2.17;1.98;;;;;;;;;;1847373;76;26268;-48
2022/06/29 04:10:05;;;;;;;3.90;2.00;;;;;;;;;;1849980;76;26264;-47
2022/06/29 04:12:33;;;;;;;1.70;1.60;;;;;;;;;;1850887;76;26402;-48
2022/06/29 04:15:01;;;;;;;1.92;1.82;;;;;;;;;;1846497;76;27098;-47
2022/06/29 04:17:29;;;;;;;1.70;1.70;;;;;;;;;;1856486;76;26626;-48
2022/06/29 04:19:56;;;;;;;1.57;1.57;;;;;;;;;;1852199;77;26748;-47
2022/06/29 04:22:23;;;;;;;1.65;1.65;;;;;;;;;;1841057;77;26256;-47
2022/06/29 04:24:51;;;;;;;2.55;1.72;;;;;;;;;;1848798;76;26356;-48
2022/06/29 04:27:18;;;;;;;1.90;1.80;;;;;;;;;;1847564;76;26292;-47
2022/06/29 04:29:45;;;;;;;1.90;1.80;;;;;;;;;;1846760;76;26833;-47
2022/06/29 04:32:13;;;;;;;2.80;1.80;;;;;;;;;;1847716;76;26715;-47
2022/06/29 04:34:40;;;;;;;1.80;1.80;;;;;;;;;;1834912;77;26771;-49
2022/06/29 04:37:08;;;;;;;3.33;1.75;;;;;;;;;;1817614;77;26264;-47
2022/06/29 04:39:36;;;;;;;1.65;1.65;;;;;;;;;;1831247;76;26603;-48
2022/06/29 04:42:03;;;;;;;2.02;1.92;;;;;;;;;;1828308;77;26326;-48
2022/06/29 04:44:31;;;;;;;1.70;1.70;;;;;;;;;;1825152;77;26202;-47
2022/06/29 04:46:58;;;;;;;1.80;1.70;;;;;;;;;;1822131;78;26322;-49
2022/06/29 04:49:25;;;;;;;4.33;1.60;;;;;;;;;;1819399;77;26264;-48
2022/06/29 04:51:53;;;;;;;1.85;1.72;;;;;;;;;;1821085;76;26443;-49
2022/06/29 04:54:20;;;;;;;2.72;1.90;;;;;;;;;;1819364;77;26656;-47
2022/06/29 04:56:47;;;;;;;1.75;1.65;;;;;;;;;;1825070;76;26340;-48
2022/06/29 04:59:15;;;;;;;3.10;1.60;;;;;;;;;;1820407;76;26241;-48
2022/06/29 05:01:43;;;;;;;2.55;1.77;;;;;;;;;;1825557;77;26320;-47
2022/06/29 05:04:10;;;;;;;4.08;1.80;;;;;;;;;;1829433;76;26267;-49
2022/06/29 05:06:38;;;;;;;1.92;1.80;;;;;;;;;;1826274;77;26331;-49
2022/06/29 05:09:05;;;;;;;1.90;1.80;;;;;;;;;;1823051;76;26905;-49
2022/06/29 05:11:32;;;;;;;5.45;2.02;;;;;;;;;;1825351;76;26308;-46
2022/06/29 05:14:00;;;;;;;6.05;2.30;;;;;;;;;;1818526;76;26351;-47
2022/06/29 05:16:27;;;;;;;2.65;2.10;;;;;;;;;;1826810;77;26701;-47
2022/06/29 05:18:54;;;;;;;3.72;2.10;;;;;;;;;;1822701;76;26577;-46
2022/06/29 05:21:21;;;;;;;2.45;2.25;;;;;;;;;;1827189;77;26660;-47
2022/06/29 05:23:49;;;;;;;5.87;2.52;;;;;;;;;;1825635;76;26265;-48
2022/06/29 05:26:16;;;;;;;7.03;2.72;;;;;;;;;;1825050;76;26284;-47
2022/06/29 05:28:43;;;;;;;2.60;2.30;;;;;;;;;;1830207;76;26286;-48
2022/06/29 05:31:11;;;;;;;7.55;2.30;;;;;;;;;;1825063;76;26312;-47
2022/06/29 05:33:38;;;;;;;6.03;2.20;;;;;;;;;;1825719;77;26277;-53
2022/06/29 05:36:07;;;;;;;2.55;2.08;;;;;;;;;;1845716;76;26341;-47
2022/06/29 05:38:35;;;;;;;3.80;2.40;;;;;;;;;;1853140;76;26677;-46
2022/06/29 05:41:02;;;;;;;2.35;2.25;;;;;;;;;;1841815;76;26351;-52
2022/06/29 05:43:30;;;;;;;4.12;2.20;;;;;;;;;;1840894;76;26797;-47
2022/06/29 05:45:58;;;;;;;3.67;2.20;;;;;;;;;;1827618;76;26314;-47
2022/06/29 05:48:25;;;;;;;3.40;2.20;;;;;;;;;;1828735;76;26548;-47
2022/06/29 05:50:53;;;;;;;2.65;2.05;;;;;;;;;;1851440;76;26337;-44
2022/06/29 05:55:52;;;;;;;2.30;2.20;;;;;;;;;;1907399;74;27447;-51
2022/06/29 05:58:20;;;;;;;3.58;2.47;;;;;;;;;;1868292;76;26289;-48
2022/06/29 06:00:48;;;;;;;12.35;2.50;;;;;;;;;;1876423;75;26322;-46
2022/06/29 06:03:17;;;;;;;2.17;2.08;;;;;;;;;;1851623;76;26590;-45
2022/06/29 06:05:44;;;;;;;2.40;2.30;;;;;;;;;;1847306;76;26278;-48
2022/06/29 06:08:13;;;;;;;2.35;2.20;;;;;;;;;;1861684;76;26315;-46
2022/06/29 06:10:40;;;;;;;2.20;2.10;;;;;;;;;;1851062;76;26272;-44
2022/06/29 06:13:08;;;;;;;2.83;2.00;;;;;;;;;;1844806;77;26283;-44
2022/06/29 06:15:35;;;;;;;2.42;2.30;;;;;;;;;;1836798;77;26265;-50
2022/06/29 06:18:03;;;;;;;3.90;2.20;;;;;;;;;;1843304;77;26238;-49
2022/06/29 06:20:31;;;;;;;2.45;2.10;;;;;;;;;;1849454;76;26717;-48
2022/06/29 06:22:58;;;;;;;2.22;2.12;;;;;;;;;;1849201;77;26924;-45
2022/06/29 06:25:25;;;;;;;2.30;2.20;;;;;;;;;;1857127;76;26901;-44
2022/06/29 06:27:53;;;;;;;2.30;2.17;;;;;;;;;;1848658;77;26754;-48
2022/06/29 06:30:20;;;;;;;2.10;2.00;;;;;;;;;;1853783;76;26836;-44
2022/06/29 06:32:47;;;;;;;2.25;2.00;;;;;;;;;;1844927;76;26269;-46
2022/06/29 06:35:15;;;;;;;2.30;2.20;;;;;;;;;;1847613;77;26359;-44
2022/06/29 06:37:43;;;;;;;2.22;2.12;;;;;;;;;;1847823;76;26258;-45
2022/06/29 06:42:56;;;;;;;2.72;2.15;;;;;;;;;;1847803;77;26263;-48
2022/06/29 06:45:24;;;;;;;2.58;2.22;;;;;;;;;;1843917;76;26330;-48
2022/06/29 06:47:53;;;;;;;2.22;2.10;;;;;;;;;;1842171;76;27350;-47
2022/06/29 06:50:20;;;;;;;2.20;2.10;;;;;;;;;;1842492;76;26265;-46
2022/06/29 06:52:47;;;;;;;2.20;2.10;;;;;;;;;;1849419;77;26320;-45
2022/06/29 06:55:14;;;;;;;2.12;1.90;;;;;;;;;;1849331;77;26742;-45
2022/06/29 06:57:42;;;;;;;2.25;2.15;;;;;;;;;;1849472;77;26248;-47
2022/06/29 07:00:09;;;;;;;2.45;2.10;;;;;;;;;;1849834;76;26571;-48
2022/06/29 07:02:37;;;;;;;2.20;2.10;;;;;;;;;;1826934;78;26639;-47
2022/06/29 07:05:04;;;;;;;2.20;2.10;;;;;;;;;;1846297;77;26308;-48
2022/06/29 07:07:32;;;;;;;2.02;1.92;;;;;;;;;;1848496;76;26195;-46
2022/06/29 07:09:59;;;;;;;1.92;1.82;;;;;;;;;;1848566;76;26746;-47
2022/06/29 07:12:26;;;;;;;2.37;2.25;;;;;;;;;;1850945;76;26273;-50
2022/06/29 07:14:54;;;;;;;2.45;2.08;;;;;;;;;;1842063;77;26379;-45
2022/06/29 07:17:21;;;;;;;2.12;2.02;;;;;;;;;;1842677;77;26245;-46
2022/06/29 07:19:48;;;;;;;2.37;2.15;;;;;;;;;;1848169;77;26258;-49
2022/06/29 07:22:15;;;;;;;1.90;1.87;;;;;;;;;;1855050;76;26858;-49
2022/06/29 07:24:43;;;;;;;2.10;2.00;;;;;;;;;;1847312;77;26257;-47
2022/06/29 07:27:10;;;;;;;2.45;2.30;;;;;;;;;;1864130;76;26907;-44
2022/06/29 07:29:38;;;;;;;2.35;2.10;;;;;;;;;;1853485;76;26335;-47
2022/06/29 07:32:07;;;;;;;2.27;2.10;;;;;;;;;;1849337;76;26784;-48
2022/06/29 07:34:34;;;;;;;2.25;2.15;;;;;;;;;;1846340;76;26277;-51
2022/06/29 07:37:01;;;;;;;3.95;2.20;;;;;;;;;;1842690;77;26281;-46
2022/06/29 07:39:33;;;;;;;2.27;2.17;;;;;;;;;;1849109;77;26293;-46
2022/06/29 07:41:58;;;;;;;2.37;2.25;;;;;;;;;;1846940;76;26329;-54
2022/06/29 07:44:25;;;;;;;1.87;1.87;;;;;;;;;;1846975;77;26547;-46
2022/06/29 07:46:52;;;;;;;2.40;2.20;;;;;;;;;;1851580;76;26242;-52
2022/06/29 07:49:20;;;;;;;2.00;2.00;;;;;;;;;;1850446;77;26249;-44
2022/06/29 07:51:47;;;;;;;2.05;2.05;;;;;;;;;;1845267;76;27040;-45
2022/06/29 07:54:15;;;;;;;2.30;2.20;;;;;;;;;;1846650;76;26291;-47
2022/06/29 07:56:42;;;;;;;2.20;2.10;;;;;;;;;;1862509;76;26297;-47
2022/06/29 07:59:10;;;;;;;2.30;2.20;;;;;;;;;;1848033;76;26695;-47
2022/06/29 08:01:37;;;;;;;1.90;1.90;;;;;;;;;;1842003;76;26252;-50
2022/06/29 08:04:05;;;;;;;2.33;2.22;;;;;;;;;;1847018;77;26717;-47
2022/06/29 08:06:32;;;;;;;2.05;2.05;;;;;;;;;;1832808;77;26304;-45
2022/06/29 08:09:02;;;;;;;2.27;2.17;;;;;;;;;;1840268;76;26779;-45
2022/06/29 08:11:28;;;;;;;2.30;2.20;;;;;;;;;;1855994;76;26269;-46
2022/06/29 08:13:56;;;;;;;2.00;2.00;;;;;;;;;;1844141;77;26249;-45
2022/06/29 08:16:23;;;;;;;2.25;2.10;;;;;;;;;;1848894;77;26265;-48
2022/06/29 08:18:50;;;;;;;2.30;2.20;;;;;;;;;;1851651;77;26276;-47
2022/06/29 08:21:17;;;;;;;2.20;2.10;;;;;;;;;;1840095;77;26276;-43
2022/06/29 08:23:45;;;;;;;11.25;2.75;;;;;;;;;;1848206;77;26710;-44
2022/06/29 08:26:12;;;;;;;9.50;2.98;;;;;;;;;;1842914;77;26891;-43
2022/06/29 08:28:39;;;;;;;14.03;3.05;;;;;;;;;;1846872;77;26659;-46
2022/06/29 08:31:07;;;;;;;11.50;3.00;;;;;;;;;;1845907;76;26269;-51
2022/06/29 08:33:34;;;;;;;6.97;2.85;;;;;;;;;;1847870;77;26269;-54
2022/06/29 08:36:01;;;;;;;4.53;3.15;;;;;;;;;;1848101;77;26285;-45
2022/06/29 08:38:29;;;;;;;6.65;3.00;;;;;;;;;;1851270;76;26254;-44
2022/06/29 08:40:57;;;;;;;5.78;3.10;;;;;;;;;;1844418;76;26995;-46
2022/06/29 08:43:24;;;;;;;5.37;3.00;;;;;;;;;;1840288;76;26264;-49
2022/06/29 08:45:53;;;;;;;3.87;3.00;;;;;;;;;;1847803;77;26273;-46
2022/06/29 08:48:21;;;;;;;3.02;2.85;;;;;;;;;;1845989;77;26351;-44
2022/06/29 08:50:49;;;;;;;4.87;3.10;;;;;;;;;;1847356;76;26253;-43
2022/06/29 08:53:17;;;;;;;3.35;3.05;;;;;;;;;;1847401;76;26348;-47
2022/06/29 08:55:45;;;;;;;3.20;2.90;;;;;;;;;;1848904;76;26835;-52
2022/06/29 08:58:14;;;;;;;3.25;2.90;;;;;;;;;;1868615;75;26748;-44
2022/06/29 09:00:42;;;;;;;3.98;2.90;;;;;;;;;;1868421;75;26260;-50
2022/06/29 09:03:10;;;;;;;2.92;2.72;;;;;;;;;;1876264;75;26272;-47
2022/06/29 09:05:38;;;;;;;2.50;2.40;;;;;;;;;;1863755;76;26284;-50
2022/06/29 09:08:05;;;;;;;2.45;2.22;;;;;;;;;;1864701;75;26300;-47
2022/06/29 09:10:33;;;;;;;2.10;2.00;;;;;;;;;;1871924;76;26237;-47
2022/06/29 09:13:01;;;;;;;2.05;1.95;;;;;;;;;;1864400;76;26266;-46
2022/06/29 09:15:33;;;;;;;2.55;2.20;;;;;;;;;;1857386;76;26913;-44
2022/06/29 09:18:01;;;;;;;2.20;2.10;;;;;;;;;;1858310;75;26316;-44
2022/06/29 09:20:38;;;;;;;1.95;1.82;;;;;;;;;;1849517;77;26752;-46
2022/06/29 09:23:07;;;;;;;2.10;1.90;;;;;;;;;;1863061;77;26284;-48
2022/06/29 09:25:39;;;;;;;2.12;2.02;;;;;;;;;;1868508;75;26365;-46
2022/06/29 09:28:04;;;;;;;2.35;2.00;;;;;;;;;;1869731;75;26332;-46
2022/06/29 09:30:33;;;;;;;2.45;1.90;;;;;;;;;;1853909;77;26269;-45
2022/06/29 09:33:06;;;;;;;2.02;1.92;;;;;;;;;;1854335;76;26273;-56
2022/06/29 09:35:37;;;;;;;2.37;2.17;;;;;;;;;;1845965;75;25830;-44
2022/06/29 09:38:21;;;;;;;2.20;2.10;;;;;;;;;;1861641;77;26811;-45
2022/06/29 09:40:55;;;;;;;2.40;2.30;;;;;;;;;;1854576;76;26240;-47
2022/06/29 09:43:22;;;;;;;2.55;2.35;;;;;;;;;;1851458;75;26261;-44
2022/06/29 09:45:51;;;;;;;2.30;2.20;;;;;;;;;;1862093;75;26905;-45
2022/06/29 09:48:20;;;;;;;2.35;2.22;;;;;;;;;;1868132;76;26749;-47
2022/06/29 09:50:49;;;;;;;2.62;2.42;;;;;;;;;;1864428;76;27361;-44
2022/06/29 09:53:18;;;;;;;2.50;2.30;;;;;;;;;;1857317;75;26685;-45
2022/06/29 09:55:49;;;;;;;2.35;2.12;;;;;;;;;;1870746;75;26691;-45
2022/06/29 09:58:18;;;;;;;2.67;2.35;;;;;;;;;;1863783;76;26280;-47
2022/06/29 10:03:32;;;;;;;2.40;2.02;;;;;;;;;;1836881;77;26348;-46
2022/06/29 10:06:05;;;;;;;3.83;2.40;;;;;;;;;;1846338;76;26228;-49
2022/06/29 10:08:29;;;;;;;3.05;2.30;;;;;;;;;;1854827;76;26317;-44
2022/06/29 10:10:58;;;;;;;2.27;2.10;;;;;;;;;;1856609;77;26249;-50
2022/06/29 10:13:42;;;;;;;2.77;2.10;;;;;;;;;;1847569;77;26319;-44
2022/06/29 10:16:11;;;;;;;2.00;1.90;;;;;;;;;;1848473;76;26691;-48
2022/06/29 10:18:43;;;;;;;2.12;2.02;;;;;;;;;;1857319;76;26198;-46
2022/06/29 10:21:27;;;;;;;2.40;1.90;;;;;;;;;;1848932;77;26261;-47
2022/06/29 10:23:58;;;;;;;2.17;2.08;;;;;;;;;;1856757;77;26339;-51
2022/06/29 10:26:32;;;;;;;2.10;2.00;;;;;;;;;;1836121;76;26711;-45
2022/06/29 10:29:10;;;;;;;1.80;1.70;;;;;;;;;;1857426;77;27339;-45
2022/06/29 10:31:54;;;;;;;2.42;1.70;;;;;;;;;;1855090;76;26372;-47
2022/06/29 10:34:37;;;;;;;2.00;1.90;;;;;;;;;;1840504;77;26366;-47
2022/06/29 10:37:05;;;;;;;1.90;1.80;;;;;;;;;;1866576;76;26398;-45
2022/06/29 10:39:38;;;;;;;2.00;1.90;;;;;;;;;;1854924;76;26347;-46
2022/06/29 10:45:01;;;;;;;3.22;1.98;;;;;;;;;;1850772;76;26274;-43
2022/06/29 10:47:30;;;;;;;1.87;1.80;;;;;;;;;;1855209;76;26295;-44
2022/06/29 10:50:23;;;;;;;2.08;1.55;;;;;;;;;;1857376;76;26281;-45
2022/06/29 10:52:47;;;;;;;1.90;1.80;;;;;;;;;;1845249;77;26225;-44
2022/06/29 10:55:15;;;;;;;1.50;1.50;;;;;;;;;;1852006;76;26354;-52
2022/06/29 10:57:43;;;;;;;1.60;1.60;;;;;;;;;;1855384;76;26289;-46
2022/06/29 11:00:24;;;;;;;3.98;1.67;;;;;;;;;;1845843;77;26826;-45
2022/06/29 11:02:52;;;;;;;1.50;1.50;;;;;;;;;;1835332;77;26312;-50
2022/06/29 11:05:20;;;;;;;1.50;1.50;;;;;;;;;;1848079;76;26868;-48
2022/06/29 11:13:22;;;;;;;1.82;1.50;;;;;;;;;;1852761;76;26358;-45
2022/06/29 11:15:50;;;;;;;1.77;1.55;;;;;;;;;;1860787;76;26374;-46
2022/06/29 11:18:19;;;;;;;3.12;1.90;;;;;;;;;;1847771;77;26720;-45
2022/06/29 11:20:51;;;;;;;1.50;1.50;;;;;;;;;;1847209;77;26270;-45
2022/06/29 11:23:20;;;;;;;1.98;1.80;;;;;;;;;;1845712;76;26210;-51
2022/06/29 11:25:49;;;;;;;1.70;1.60;;;;;;;;;;1842712;76;26377;-48
2022/06/29 11:28:20;;;;;;;1.62;1.52;;;;;;;;;;1851747;76;26926;-46
2022/06/29 11:31:02;;;;;;;1.72;1.62;;;;;;;;;;1855893;77;26246;-45
2022/06/29 11:33:30;;;;;;;1.65;1.55;;;;;;;;;;1850711;77;26694;-46
2022/06/29 11:35:58;;;;;;;1.70;1.60;;;;;;;;;;1843431;76;26324;-50
2022/06/29 11:38:28;;;;;;;1.52;1.52;;;;;;;;;;1849333;77;26258;-48
2022/06/29 11:40:56;;;;;;;1.70;1.70;;;;;;;;;;1848252;77;26740;-45
2022/06/29 11:43:23;;;;;;;2.02;1.92;;;;;;;;;;1845571;76;26300;-46
2022/06/29 11:45:52;;;;;;;1.70;1.70;;;;;;;;;;1853772;76;26472;-45
2022/06/29 11:48:23;;;;;;;2.10;2.00;;;;;;;;;;1862277;76;26261;-52
2022/06/29 11:50:52;;;;;;;2.30;2.10;;;;;;;;;;1828968;77;26227;-45
2022/06/29 11:53:36;;;;;;;2.10;2.00;;;;;;;;;;1848208;77;26253;-47
2022/06/29 11:56:17;;;;;;;2.00;2.00;;;;;;;;;;1833976;76;26351;-45
2022/06/29 11:58:57;;;;;;;2.22;2.12;;;;;;;;;;1846589;76;26793;-45
2022/06/29 12:01:16;;;;;;;2.40;2.30;;;;;;;;;;1857021;76;26449;-45
2022/06/29 12:03:49;;;;;;;2.17;2.15;;;;;;;;;;1847394;77;26340;-44
2022/06/29 12:06:17;;;;;;;2.25;2.15;;;;;;;;;;1842251;76;26261;-44
2022/06/29 12:08:46;;;;;;;2.20;2.10;;;;;;;;;;1859120;76;26303;-49
2022/06/29 12:11:13;;;;;;;2.30;2.20;;;;;;;;;;1850139;76;26283;-43
2022/06/29 12:13:42;;;;;;;2.98;2.50;;;;;;;;;;1837933;76;26272;-44
2022/06/29 12:16:10;;;;;;;2.55;2.35;;;;;;;;;;1851720;76;26832;-45
2022/06/29 12:18:37;;;;;;;2.37;2.27;;;;;;;;;;1849269;76;26200;-44
2022/06/29 12:21:05;;;;;;;2.05;2.05;;;;;;;;;;1849747;77;26832;-49
2022/06/29 12:23:32;;;;;;;2.30;2.20;;;;;;;;;;1860966;76;26848;-44
2022/06/29 12:25:59;;;;;;;2.20;2.10;;;;;;;;;;1857381;76;26261;-49
2022/06/29 12:28:27;;;;;;;2.20;2.10;;;;;;;;;;1851746;76;26354;-44
2022/06/29 12:30:54;;;;;;;2.35;2.25;;;;;;;;;;1862680;76;26267;-49
2022/06/29 12:33:22;;;;;;;2.33;2.25;;;;;;;;;;1848045;76;26297;-47
2022/06/29 12:35:52;;;;;;;2.42;2.33;;;;;;;;;;1842170;76;26760;-48
2022/06/29 12:38:18;;;;;;;2.20;2.10;;;;;;;;;;1850056;76;26276;-48
2022/06/29 12:40:46;;;;;;;2.10;2.10;;;;;;;;;;1851014;77;26259;-47
2022/06/29 12:43:13;;;;;;;2.00;2.00;;;;;;;;;;1850821;77;26266;-49
2022/06/29 12:45:40;;;;;;;2.33;2.22;;;;;;;;;;1855984;76;26347;-44
2022/06/29 12:48:08;;;;;;;2.50;2.40;;;;;;;;;;1862533;76;26742;-48
2022/06/29 12:50:35;;;;;;;2.30;2.20;;;;;;;;;;1849671;77;26540;-47
2022/06/29 12:53:02;;;;;;;2.20;2.17;;;;;;;;;;1845504;77;26319;-49
2022/06/29 12:55:29;;;;;;;3.00;2.40;;;;;;;;;;1845238;76;26931;-46
2022/06/29 12:57:57;;;;;;;2.30;2.20;;;;;;;;;;1852800;76;26885;-45
2022/06/29 13:00:24;;;;;;;2.65;2.55;;;;;;;;;;1863045;77;26537;-52
2022/06/29 13:02:51;;;;;;;2.47;2.30;;;;;;;;;;1863159;77;26340;-49
2022/06/29 13:05:21;;;;;;;2.92;2.62;;;;;;;;;;1862931;75;26661;-51
2022/06/29 13:07:48;;;;;;;2.70;2.60;;;;;;;;;;1870196;75;26761;-44
2022/06/29 13:10:15;;;;;;;2.70;2.60;;;;;;;;;;1862960;75;26319;-44
2022/06/29 13:12:42;;;;;;;2.45;2.35;;;;;;;;;;1857772;75;27078;-48
2022/06/29 13:15:10;;;;;;;2.60;2.50;;;;;;;;;;1863334;77;26225;-47
2022/06/29 13:17:37;;;;;;;2.50;2.40;;;;;;;;;;1862385;75;26252;-44
2022/06/29 13:20:08;;;;;;;2.50;2.40;;;;;;;;;;1861060;77;26288;-45
2022/06/29 13:22:35;;;;;;;2.65;2.45;;;;;;;;;;1860455;76;26364;-44
2022/06/29 13:25:03;;;;;;;2.55;2.40;;;;;;;;;;1862389;77;27019;-49
2022/06/29 13:27:31;;;;;;;2.77;2.60;;;;;;;;;;1860506;77;26747;-46
2022/06/29 13:29:58;;;;;;;2.50;2.40;;;;;;;;;;1859605;76;26257;-44
2022/06/29 13:32:26;;;;;;;2.45;2.35;;;;;;;;;;1863261;77;26329;-47
2022/06/29 13:34:53;;;;;;;3.00;2.70;;;;;;;;;;1864840;76;26432;-46
2022/06/29 13:37:21;;;;;;;2.80;2.70;;;;;;;;;;1860982;75;26300;-47
2022/06/29 13:39:48;;;;;;;2.47;2.37;;;;;;;;;;1863023;75;26296;-44
2022/06/29 13:42:15;;;;;;;2.60;2.50;;;;;;;;;;1861100;77;26246;-43
2022/06/29 13:44:43;;;;;;;2.60;2.50;;;;;;;;;;1860117;76;26245;-44
2022/06/29 13:47:10;;;;;;;2.70;2.60;;;;;;;;;;1864276;75;26260;-46
2022/06/29 13:49:37;;;;;;;2.50;2.37;;;;;;;;;;1871630;75;26267;-44
2022/06/29 13:52:05;;;;;;;2.90;2.70;;;;;;;;;;1859799;75;26261;-45
2022/06/29 13:54:33;;;;;;;2.80;2.70;;;;;;;;;;1864137;75;26265;-45
2022/06/29 13:57:00;;;;;;;2.87;2.77;;;;;;;;;;1864549;75;26349;-44
2022/06/29 13:59:28;;;;;;;2.83;2.72;;;;;;;;;;1865238;76;26415;-44
2022/06/29 14:01:55;;;;;;;3.05;2.67;;;;;;;;;;1861710;77;26346;-49
2022/06/29 14:04:22;;;;;;;2.83;2.72;;;;;;;;;;1863889;75;26291;-47
2022/06/29 14:06:49;;;;;;;2.72;2.62;;;;;;;;;;1866828;75;26262;-46
2022/06/29 14:09:17;;;;;;;3.10;3.00;;;;;;;;;;1861969;75;26249;-44
2022/06/29 14:11:44;;;;;;;3.17;2.98;;;;;;;;;;1859995;75;26334;-44
2022/06/29 14:14:11;;;;;;;3.55;3.20;;;;;;;;;;1845548;75;26330;-45
2022/06/29 14:16:39;;;;;;;3.10;3.00;;;;;;;;;;1855734;75;26685;-45
2022/06/29 14:19:06;;;;;;;3.35;3.15;;;;;;;;;;1861669;76;26298;-46
2022/06/29 14:21:34;;;;;;;3.20;2.95;;;;;;;;;;1863017;77;26366;-44
2022/06/29 14:24:02;;;;;;;3.45;3.27;;;;;;;;;;1859371;77;26794;-46
2022/06/29 14:26:29;;;;;;;3.67;3.37;;;;;;;;;;1862402;76;26253;-44
2022/06/29 14:28:56;;;;;;;3.50;3.30;;;;;;;;;;1872817;76;26309;-44
2022/06/29 14:31:24;;;;;;;3.00;2.90;;;;;;;;;;1871893;76;26334;-46
2022/06/29 14:33:52;;;;;;;2.62;2.52;;;;;;;;;;1865455;76;26205;-46
2022/06/29 14:36:19;;;;;;;2.20;2.10;;;;;;;;;;1860253;75;26269;-45
2022/06/29 14:38:46;;;;;;;1.98;1.87;;;;;;;;;;1857582;76;27443;-47
2022/06/29 14:41:14;;;;;;;2.15;2.08;;;;;;;;;;1854200;76;26197;-43
2022/06/29 14:43:41;;;;;;;2.10;1.90;;;;;;;;;;1869560;75;26712;-44
2022/06/29 14:46:08;;;;;;;2.27;2.08;;;;;;;;;;1864027;75;26743;-43
2022/06/29 14:48:36;;;;;;;2.20;2.10;;;;;;;;;;1863999;75;26264;-42
2022/06/29 14:51:03;;;;;;;2.83;2.12;;;;;;;;;;1862631;77;26339;-51
2022/06/29 14:53:30;;;;;;;2.17;2.10;;;;;;;;;;1855364;75;26263;-51
2022/06/29 14:55:58;;;;;;;2.72;2.20;;;;;;;;;;1855946;75;26761;-45
2022/06/29 14:58:25;;;;;;;2.40;2.30;;;;;;;;;;1844550;75;26708;-60
2022/06/29 15:00:53;;;;;;;2.42;2.33;;;;;;;;;;1848791;76;26598;-44
2022/06/29 15:03:21;;;;;;;2.35;2.25;;;;;;;;;;1847104;76;26206;-50
2022/06/29 15:05:48;;;;;;;2.30;2.20;;;;;;;;;;1846799;76;26417;-44
2022/06/29 15:08:15;;;;;;;2.60;2.40;;;;;;;;;;1846625;76;26363;-46
2022/06/29 15:10:42;;;;;;;2.83;2.72;;;;;;;;;;1852173;76;26683;-46